Time;durP1;ratioP1;P1;durP2;ratioP2;P2;SDS_P1;SDS_P2;PMS_P1;PMS_P2;Temp;Humidity;BMP_temperature;BMP_pressure;BME280_temperature;BME280_humidity;BME280_pressure;Samples;Min_cycle;Max_cycle;Signal;HPM_P1;HPM_P2
2022/08/30 00:01:25;;;;;;;10.00;5.25;;;17.40;99.90;;;;;;5089661;28;20204;-51
2022/08/30 00:03:53;;;;;;;6.47;4.95;;;17.30;99.90;;;;;;5090650;28;20224;-51
2022/08/30 00:06:25;;;;;;;6.53;4.65;;;17.30;99.90;;;;;;5090547;28;20210;-51
2022/08/30 00:08:53;;;;;;;7.97;5.10;;;17.30;99.90;;;;;;5090324;28;20212;-52
2022/08/30 00:11:24;;;;;;;5.88;4.88;;;17.20;99.90;;;;;;5089703;28;20228;-52
2022/08/30 00:13:54;;;;;;;7.60;4.22;;;17.20;99.90;;;;;;5089574;28;20721;-51
2022/08/30 00:16:25;;;;;;;5.50;4.32;;;17.30;99.90;;;;;;5090225;28;20253;-52
2022/08/30 00:18:53;;;;;;;6.57;4.18;;;17.30;99.90;;;;;;5089936;28;20281;-51
2022/08/30 00:21:23;;;;;;;8.80;4.57;;;17.40;99.90;;;;;;5090150;28;20204;-52
2022/08/30 00:23:51;;;;;;;8.15;4.40;;;17.30;99.90;;;;;;5089627;28;20224;-52
2022/08/30 00:26:19;;;;;;;7.50;4.13;;;17.20;99.90;;;;;;5089475;28;20941;-51
2022/08/30 00:28:47;;;;;;;7.00;4.57;;;17.20;99.90;;;;;;5090050;28;20204;-51
2022/08/30 00:31:15;;;;;;;5.80;3.95;;;17.10;99.90;;;;;;5090089;28;21006;-52
2022/08/30 00:33:43;;;;;;;5.72;4.00;;;17.00;99.90;;;;;;5089490;28;20470;-51
2022/08/30 00:36:11;;;;;;;8.45;4.63;;;16.90;99.90;;;;;;5089739;28;20200;-52
2022/08/30 00:38:41;;;;;;;6.70;4.30;;;16.90;99.90;;;;;;5089701;28;20285;-50
2022/08/30 00:41:09;;;;;;;6.00;4.18;;;16.80;99.90;;;;;;5089636;28;20254;-52
2022/08/30 00:43:37;;;;;;;6.30;4.32;;;16.80;99.90;;;;;;5090154;28;20293;-50
2022/08/30 00:46:07;;;;;;;9.68;4.57;;;16.70;99.90;;;;;;5089826;28;20250;-51
2022/08/30 00:48:40;;;;;;;6.60;4.43;;;16.70;99.90;;;;;;5088842;28;20200;-50
2022/08/30 00:51:10;;;;;;;7.85;5.55;;;16.70;99.90;;;;;;5089389;28;20568;-52
2022/08/30 00:53:43;;;;;;;6.72;5.20;;;16.70;99.90;;;;;;5089939;28;20205;-51
2022/08/30 00:56:13;;;;;;;6.95;4.53;;;16.70;99.90;;;;;;5088482;28;20204;-51
2022/08/30 00:58:46;;;;;;;11.38;5.70;;;16.80;99.90;;;;;;5076783;28;20266;-51
2022/08/30 01:01:14;;;;;;;6.28;4.65;;;16.80;99.90;;;;;;5089680;28;20683;-51
2022/08/30 01:03:43;;;;;;;6.65;4.80;;;16.90;99.90;;;;;;5089210;28;20204;-52
2022/08/30 01:06:14;;;;;;;6.55;4.63;;;16.90;99.90;;;;;;5090130;28;20203;-52
2022/08/30 01:08:45;;;;;;;5.90;4.32;;;16.80;99.90;;;;;;5089389;28;20319;-51
2022/08/30 01:11:14;;;;;;;6.75;4.90;;;16.80;99.90;;;;;;5089641;28;20208;-52
2022/08/30 01:13:44;;;;;;;8.07;4.60;;;16.70;99.90;;;;;;5089018;28;20286;-51
2022/08/30 01:16:12;;;;;;;8.13;5.05;;;16.70;99.90;;;;;;5089588;28;20204;-51
2022/08/30 01:18:41;;;;;;;7.63;4.68;;;16.60;99.90;;;;;;5089330;28;20228;-52
2022/08/30 01:21:18;;;;;;;8.18;4.38;;;16.50;99.90;;;;;;5089311;28;20243;-51
2022/08/30 01:23:50;;;;;;;5.60;4.60;;;16.50;99.90;;;;;;5089579;28;20203;-52
2022/08/30 01:26:19;;;;;;;9.27;5.13;;;16.50;99.90;;;;;;5088415;28;20748;-51
2022/08/30 01:28:54;;;;;;;9.02;5.20;;;16.50;99.90;;;;;;5089639;28;20965;-52
2022/08/30 01:31:23;;;;;;;8.55;5.07;;;16.40;99.90;;;;;;5089678;28;20207;-52
2022/08/30 01:33:51;;;;;;;6.75;4.70;;;16.40;99.90;;;;;;5088487;28;20232;-51
2022/08/30 01:36:20;;;;;;;10.05;5.03;;;16.30;99.90;;;;;;5089056;28;20257;-51
2022/08/30 01:38:52;;;;;;;8.10;4.88;;;16.20;99.90;;;;;;5089597;28;20281;-49
2022/08/30 01:41:23;;;;;;;6.80;4.63;;;16.10;99.90;;;;;;5088481;28;20258;-51
2022/08/30 01:43:54;;;;;;;10.02;4.90;;;16.00;99.90;;;;;;5089515;28;20301;-51
2022/08/30 01:46:25;;;;;;;6.65;4.35;;;15.90;99.90;;;;;;5089283;28;20840;-52
2022/08/30 01:48:55;;;;;;;7.75;4.57;;;15.80;99.90;;;;;;5088951;28;20762;-51
2022/08/30 01:51:25;;;;;;;7.85;5.20;;;15.80;99.90;;;;;;5103893;28;20200;-52
2022/08/30 01:53:54;;;;;;;7.35;4.85;;;15.70;99.90;;;;;;5098704;28;20231;-51
2022/08/30 01:56:23;;;;;;;7.10;5.20;;;15.70;99.90;;;;;;5109141;28;20615;-52
2022/08/30 01:58:52;;;;;;;10.48;5.18;;;15.60;99.90;;;;;;5109200;28;20256;-51
2022/08/30 02:01:24;;;;;;;7.07;5.35;;;15.60;99.90;;;;;;5112951;28;20272;-52
2022/08/30 02:03:55;;;;;;;8.80;5.10;;;15.50;99.90;;;;;;5113047;28;20259;-51
2022/08/30 02:06:23;;;;;;;8.70;5.47;;;15.50;99.90;;;;;;5110248;28;20203;-51
2022/08/30 02:08:51;;;;;;;5.28;4.45;;;15.50;99.90;;;;;;5108167;28;20611;-51
2022/08/30 02:11:21;;;;;;;6.90;4.97;;;15.40;99.90;;;;;;5112135;28;20204;-51
2022/08/30 02:13:50;;;;;;;8.00;5.57;;;15.40;99.90;;;;;;5111446;28;20228;-50
2022/08/30 02:16:21;;;;;;;9.13;5.70;;;15.30;99.90;;;;;;5112677;28;20256;-52
2022/08/30 02:18:51;;;;;;;6.72;5.45;;;15.20;99.90;;;;;;5112465;28;20250;-51
2022/08/30 02:21:20;;;;;;;7.30;5.25;;;15.20;99.90;;;;;;5112520;28;20249;-51
2022/08/30 02:23:48;;;;;;;6.47;5.63;;;15.20;99.90;;;;;;5112874;28;20256;-52
2022/08/30 02:26:17;;;;;;;8.07;5.50;;;15.20;99.90;;;;;;5112172;28;20622;-51
2022/08/30 02:28:47;;;;;;;9.07;5.13;;;15.20;99.90;;;;;;5106749;28;20199;-52
2022/08/30 02:31:18;;;;;;;11.30;5.70;;;15.40;99.90;;;;;;5112095;28;20724;-51
2022/08/30 02:33:48;;;;;;;7.97;5.43;;;15.50;99.90;;;;;;5098912;28;20216;-51
2022/08/30 02:36:17;;;;;;;10.20;5.70;;;15.60;99.90;;;;;;5112539;28;20211;-51
2022/08/30 02:38:46;;;;;;;7.13;4.97;;;15.70;99.90;;;;;;5112220;28;20203;-51
2022/08/30 02:41:14;;;;;;;9.27;5.13;;;15.70;99.90;;;;;;5112164;28;20257;-51
2022/08/30 02:43:42;;;;;;;7.38;5.10;;;15.70;99.90;;;;;;5111690;28;20203;-50
2022/08/30 02:46:12;;;;;;;7.73;5.07;;;15.60;99.90;;;;;;5104094;28;20195;-51
2022/08/30 02:48:40;;;;;;;7.72;5.22;;;15.60;99.90;;;;;;5111563;28;20684;-51
2022/08/30 02:51:12;;;;;;;8.13;5.25;;;15.50;99.90;;;;;;5112298;28;20249;-52
2022/08/30 02:53:41;;;;;;;5.80;5.05;;;15.50;99.90;;;;;;5111645;28;20268;-52
2022/08/30 02:56:10;;;;;;;7.03;5.37;;;15.50;99.90;;;;;;5111294;28;20204;-51
2022/08/30 02:58:38;;;;;;;10.23;5.23;;;15.40;99.90;;;;;;5112336;28;20676;-50
2022/08/30 03:01:07;;;;;;;5.85;5.15;;;15.40;99.90;;;;;;5111432;28;20200;-51
2022/08/30 03:03:36;;;;;;;7.82;6.25;;;15.30;99.90;;;;;;5111936;28;20231;-52
2022/08/30 03:06:04;;;;;;;8.50;5.67;;;15.30;99.90;;;;;;5111385;28;20207;-51
2022/08/30 03:08:33;;;;;;;8.20;5.70;;;15.20;99.90;;;;;;5111709;28;20204;-52
2022/08/30 03:11:01;;;;;;;8.60;5.27;;;15.20;99.90;;;;;;5110056;28;20743;-51
2022/08/30 03:13:30;;;;;;;8.00;5.75;;;15.10;99.90;;;;;;5111736;28;20227;-52
2022/08/30 03:15:58;;;;;;;8.97;6.13;;;15.20;99.90;;;;;;5110581;28;20241;-51
2022/08/30 03:18:27;;;;;;;10.30;5.80;;;15.20;99.90;;;;;;5111394;28;20248;-51
2022/08/30 03:20:56;;;;;;;8.83;5.77;;;15.20;99.90;;;;;;5111425;28;20260;-51
2022/08/30 03:23:24;;;;;;;7.40;6.00;;;15.20;99.90;;;;;;5097140;28;20200;-51
2022/08/30 03:25:53;;;;;;;10.93;5.97;;;15.20;99.90;;;;;;5111489;28;20235;-51
2022/08/30 03:28:21;;;;;;;12.32;6.32;;;15.10;99.90;;;;;;5108645;28;20233;-51
2022/08/30 03:30:49;;;;;;;8.15;6.00;;;15.20;99.90;;;;;;5111921;28;20207;-52
2022/08/30 03:33:17;;;;;;;10.43;5.40;;;15.10;99.90;;;;;;5100750;28;20265;-51
2022/08/30 03:35:48;;;;;;;8.53;5.97;;;15.10;99.90;;;;;;5110830;28;20680;-51
2022/08/30 03:38:18;;;;;;;9.87;5.77;;;15.00;99.90;;;;;;5111238;28;20272;-51
2022/08/30 03:40:47;;;;;;;8.13;5.60;;;15.00;99.90;;;;;;5111131;28;20672;-51
2022/08/30 03:43:15;;;;;;;8.57;5.80;;;15.00;99.90;;;;;;5110931;28;20200;-51
2022/08/30 03:45:43;;;;;;;8.27;5.83;;;15.00;99.90;;;;;;5105529;28;20223;-51
2022/08/30 03:48:11;;;;;;;9.77;6.27;;;15.00;99.90;;;;;;5110612;28;20207;-52
2022/08/30 03:50:40;;;;;;;8.63;6.00;;;15.00;99.90;;;;;;5111113;28;20256;-52
2022/08/30 03:53:08;;;;;;;7.90;5.80;;;15.00;99.90;;;;;;5111168;28;20200;-52
2022/08/30 03:55:37;;;;;;;6.30;5.20;;;14.90;99.90;;;;;;5109333;28;20220;-52
2022/08/30 03:58:05;;;;;;;8.43;5.53;;;14.90;99.90;;;;;;5111190;28;20206;-51
2022/08/30 04:00:34;;;;;;;8.93;5.70;;;15.00;99.90;;;;;;5111367;28;20204;-52
2022/08/30 04:03:02;;;;;;;8.67;5.70;;;15.00;99.90;;;;;;5083484;28;20204;-51
2022/08/30 04:05:30;;;;;;;8.50;5.75;;;15.10;99.90;;;;;;5110774;28;20273;-51
2022/08/30 04:07:58;;;;;;;9.83;5.80;;;15.10;99.90;;;;;;5110666;28;20204;-50
2022/08/30 04:10:26;;;;;;;8.00;5.00;;;15.00;99.90;;;;;;5110642;28;20239;-51
2022/08/30 04:12:56;;;;;;;8.00;5.80;;;14.90;99.90;;;;;;5110455;28;20229;-52
2022/08/30 04:15:24;;;;;;;9.13;6.40;;;15.00;99.90;;;;;;5110118;28;20228;-51
2022/08/30 04:17:53;;;;;;;9.37;6.07;;;15.00;99.90;;;;;;5110507;28;20232;-51
2022/08/30 04:20:21;;;;;;;10.30;6.07;;;15.00;99.90;;;;;;5110278;28;20208;-51
2022/08/30 04:22:51;;;;;;;9.67;5.80;;;15.00;99.90;;;;;;5109959;28;20215;-52
2022/08/30 04:25:20;;;;;;;10.60;6.03;;;15.00;99.90;;;;;;5110066;28;20219;-51
2022/08/30 04:27:48;;;;;;;8.90;6.00;;;14.90;99.90;;;;;;5107330;28;20258;-51
2022/08/30 04:30:18;;;;;;;9.17;5.50;;;14.90;99.90;;;;;;5109807;28;20199;-52
2022/08/30 04:32:46;;;;;;;8.00;5.93;;;14.90;99.90;;;;;;5100627;28;20288;-50
2022/08/30 04:35:14;;;;;;;9.17;6.53;;;14.90;99.90;;;;;;5108743;28;20688;-51
2022/08/30 04:37:43;;;;;;;6.93;5.80;;;14.90;99.90;;;;;;5110530;28;20215;-51
2022/08/30 04:40:12;;;;;;;8.80;6.60;;;14.90;99.90;;;;;;5109863;28;20249;-51
2022/08/30 04:42:42;;;;;;;9.17;5.73;;;15.00;99.90;;;;;;5110187;28;20207;-51
2022/08/30 04:45:13;;;;;;;7.03;5.57;;;15.00;99.90;;;;;;5104246;28;20215;-52
2022/08/30 04:47:43;;;;;;;8.63;5.30;;;15.00;99.90;;;;;;5110450;28;20273;-51
2022/08/30 04:50:13;;;;;;;8.30;6.00;;;15.10;99.90;;;;;;5109710;28;20216;-52
2022/08/30 04:52:43;;;;;;;8.07;6.20;;;14.90;99.90;;;;;;5097546;28;20251;-52
2022/08/30 04:55:12;;;;;;;9.73;6.13;;;15.00;99.90;;;;;;5091542;28;20862;-52
2022/08/30 04:57:46;;;;;;;9.70;5.83;;;15.10;99.90;;;;;;5087912;28;20207;-51
2022/08/30 05:00:15;;;;;;;6.17;5.30;;;15.10;99.90;;;;;;5089590;28;20621;-51
2022/08/30 05:02:44;;;;;;;7.47;5.63;;;15.20;99.90;;;;;;5106963;28;20199;-52
2022/08/30 05:07:59;;;;;;;12.13;6.20;;;15.10;99.90;;;;;;5109371;28;20270;-52
2022/08/30 05:10:27;;;;;;;8.18;6.20;;;15.20;99.90;;;;;;5109785;28;20258;-51
2022/08/30 05:12:55;;;;;;;7.45;5.70;;;15.40;99.90;;;;;;5109538;28;20609;-50
2022/08/30 05:15:23;;;;;;;6.47;5.43;;;15.40;99.90;;;;;;5109516;28;20280;-51
2022/08/30 05:17:53;;;;;;;7.05;5.60;;;15.30;99.90;;;;;;5108888;28;20970;-52
2022/08/30 05:20:21;;;;;;;12.82;6.30;;;15.10;99.90;;;;;;5109411;28;20203;-51
2022/08/30 05:22:49;;;;;;;8.17;6.03;;;15.00;99.90;;;;;;5110132;28;20203;-51
2022/08/30 05:25:23;;;;;;;7.40;5.77;;;15.00;99.90;;;;;;5109395;28;20223;-51
2022/08/30 05:27:52;;;;;;;11.00;6.40;;;15.00;99.90;;;;;;5107135;28;20204;-52
2022/08/30 05:30:22;;;;;;;8.50;6.20;;;15.00;99.90;;;;;;5109333;28;20196;-52
2022/08/30 05:32:51;;;;;;;11.00;6.40;;;14.90;99.90;;;;;;5104380;28;20311;-51
2022/08/30 05:35:21;;;;;;;8.20;6.03;;;15.00;99.90;;;;;;5111113;28;20276;-51
2022/08/30 05:37:53;;;;;;;9.33;5.77;;;15.10;99.90;;;;;;5113599;28;20257;-52
2022/08/30 05:40:21;;;;;;;7.13;5.87;;;15.20;99.90;;;;;;5113153;28;20208;-52
2022/08/30 05:42:49;;;;;;;7.77;5.73;;;15.50;99.90;;;;;;5113205;28;20246;-51
2022/08/30 05:45:17;;;;;;;9.13;6.13;;;15.70;99.90;;;;;;5102894;28;20220;-52
2022/08/30 05:47:46;;;;;;;8.60;5.47;;;15.80;99.90;;;;;;5113227;28;20227;-51
2022/08/30 05:50:15;;;;;;;7.68;6.38;;;15.90;99.90;;;;;;5113440;28;20208;-51
2022/08/30 05:52:44;;;;;;;8.67;6.40;;;15.90;99.90;;;;;;5113602;28;20239;-52
2022/08/30 05:55:13;;;;;;;10.23;6.30;;;15.90;99.90;;;;;;5113036;28;20650;-51
2022/08/30 05:57:41;;;;;;;9.00;6.57;;;15.80;99.90;;;;;;5113132;28;20200;-52
2022/08/30 06:00:13;;;;;;;9.68;6.38;;;15.80;99.90;;;;;;5105927;28;21010;-52
2022/08/30 06:02:42;;;;;;;7.65;6.43;;;15.70;99.90;;;;;;5113185;28;20208;-52
2022/08/30 06:05:11;;;;;;;8.15;6.05;;;15.70;99.90;;;;;;5112870;28;20276;-52
2022/08/30 06:07:42;;;;;;;8.18;6.32;;;15.80;99.90;;;;;;5113232;28;20633;-52
2022/08/30 06:10:12;;;;;;;10.90;5.88;;;16.00;99.90;;;;;;5113350;28;20226;-52
2022/08/30 06:12:42;;;;;;;9.13;6.43;;;16.10;99.90;;;;;;5112942;28;20655;-53
2022/08/30 06:15:11;;;;;;;10.25;6.30;;;16.20;99.90;;;;;;5112801;28;20288;-52
2022/08/30 06:17:39;;;;;;;9.70;6.55;;;16.30;99.90;;;;;;5112752;28;20238;-52
2022/08/30 06:20:08;;;;;;;8.65;6.60;;;16.40;99.90;;;;;;5113077;28;20210;-51
2022/08/30 06:22:37;;;;;;;9.82;6.00;;;16.40;99.90;;;;;;5112572;28;20260;-52
2022/08/30 06:25:06;;;;;;;7.85;6.30;;;16.40;99.90;;;;;;5112482;28;20219;-52
2022/08/30 06:27:36;;;;;;;8.07;6.50;;;16.40;99.90;;;;;;5111371;28;20219;-52
2022/08/30 06:30:07;;;;;;;9.43;5.95;;;16.70;99.90;;;;;;5111835;28;20207;-53
2022/08/30 06:32:35;;;;;;;8.60;5.93;;;17.00;99.90;;;;;;5104356;28;20208;-52
2022/08/30 06:35:03;;;;;;;8.55;6.47;;;17.00;99.90;;;;;;5110496;28;20231;-52
2022/08/30 06:37:31;;;;;;;7.93;6.07;;;17.20;99.90;;;;;;5112263;28;20211;-52
2022/08/30 06:40:01;;;;;;;8.45;6.00;;;17.60;99.90;;;;;;5112139;28;20260;-52
2022/08/30 06:42:32;;;;;;;8.52;6.57;;;17.90;99.90;;;;;;5112789;28;20210;-52
2022/08/30 06:45:02;;;;;;;9.38;5.75;;;18.50;99.90;;;;;;5089696;28;20243;-52
2022/08/30 06:47:38;;;;;;;8.05;5.88;;;19.10;99.90;;;;;;5091722;28;20573;-52
2022/08/30 06:50:08;;;;;;;11.48;5.88;;;19.10;99.90;;;;;;5090940;28;20207;-52
2022/08/30 06:52:39;;;;;;;8.48;6.43;;;19.00;99.90;;;;;;5091255;28;20211;-52
2022/08/30 06:55:08;;;;;;;10.07;6.13;;;18.90;99.90;;;;;;5090268;28;20662;-52
2022/08/30 06:57:36;;;;;;;9.30;6.00;;;18.80;99.90;;;;;;5081947;28;20252;-51
2022/08/30 07:00:08;;;;;;;7.18;5.80;;;18.80;99.90;;;;;;5111845;28;20656;-52
2022/08/30 07:02:37;;;;;;;6.13;5.43;;;18.80;99.90;;;;;;5110891;28;20583;-52
2022/08/30 07:05:06;;;;;;;9.10;6.05;;;18.90;99.90;;;;;;5111723;28;20276;-52
2022/08/30 07:07:35;;;;;;;8.50;5.45;;;18.80;99.90;;;;;;5098506;28;20274;-52
2022/08/30 07:10:03;;;;;;;10.00;6.10;;;18.80;99.90;;;;;;5087653;28;20264;-51
2022/08/30 07:12:31;;;;;;;9.43;5.88;;;18.70;99.90;;;;;;5106182;28;20756;-52
2022/08/30 07:15:01;;;;;;;8.77;5.93;;;18.60;99.90;;;;;;5111191;28;20227;-52
2022/08/30 07:20:17;;;;;;;8.75;5.93;;;18.60;99.90;;;;;;5109223;28;20203;-53
2022/08/30 07:22:45;;;;;;;8.80;6.05;;;18.60;99.90;;;;;;5106268;28;20203;-52
2022/08/30 07:25:14;;;;;;;11.38;5.30;;;18.60;99.90;;;;;;5110934;28;20220;-52
2022/08/30 07:27:42;;;;;;;10.27;5.28;;;18.60;99.90;;;;;;5109213;28;20207;-52
2022/08/30 07:30:12;;;;;;;10.00;5.82;;;18.70;99.90;;;;;;5111227;28;20891;-51
2022/08/30 07:32:41;;;;;;;11.77;5.63;;;18.70;99.90;;;;;;5102843;28;20216;-51
2022/08/30 07:35:09;;;;;;;8.57;5.50;;;18.80;99.90;;;;;;5109585;28;20236;-52
2022/08/30 07:37:37;;;;;;;7.57;4.90;;;19.20;99.90;;;;;;5098588;28;20208;-52
2022/08/30 07:40:06;;;;;;;7.47;4.80;;;19.80;99.90;;;;;;5098459;28;20195;-52
2022/08/30 07:42:34;;;;;;;8.27;4.90;;;20.20;99.90;;;;;;5110523;28;20216;-51
2022/08/30 07:45:03;;;;;;;7.63;4.57;;;20.40;99.90;;;;;;5097562;28;20293;-52
2022/08/30 07:47:32;;;;;;;7.47;4.32;;;20.50;99.90;;;;;;5110318;28;20256;-51
2022/08/30 07:50:03;;;;;;;6.63;4.53;;;20.40;99.90;;;;;;5110693;28;20252;-52
2022/08/30 07:52:31;;;;;;;7.80;4.82;;;20.50;99.90;;;;;;5111062;28;20208;-52
2022/08/30 07:55:00;;;;;;;17.95;4.90;;;20.30;99.90;;;;;;5109644;28;20567;-52
2022/08/30 07:57:30;;;;;;;5.30;4.30;;;20.50;99.90;;;;;;5109969;28;20208;-52
2022/08/30 07:59:58;;;;;;;5.68;4.68;;;21.00;99.90;;;;;;5110343;28;20207;-52
2022/08/30 08:02:27;;;;;;;6.97;4.15;;;21.40;99.90;;;;;;5110505;28;20741;-51
2022/08/30 08:04:55;;;;;;;9.45;4.65;;;21.50;99.90;;;;;;5110468;28;20278;-52
2022/08/30 08:07:24;;;;;;;6.78;4.43;;;21.60;99.90;;;;;;5110841;28;20204;-52
2022/08/30 08:09:53;;;;;;;12.23;4.50;;;21.70;99.90;;;;;;5109946;28;20208;-52
2022/08/30 08:12:21;;;;;;;12.02;4.68;;;21.60;99.90;;;;;;5110926;28;20211;-52
2022/08/30 08:14:49;;;;;;;7.82;4.53;;;21.40;99.90;;;;;;5110163;28;20272;-52
2022/08/30 08:17:17;;;;;;;6.28;4.20;;;21.30;99.90;;;;;;5110252;28;20719;-52
2022/08/30 08:19:45;;;;;;;6.68;4.18;;;21.40;99.90;;;;;;5110276;28;20204;-51
2022/08/30 08:22:13;;;;;;;6.00;4.25;;;21.60;99.90;;;;;;5101909;28;20232;-52
2022/08/30 08:24:49;;;;;;;6.47;3.92;;;21.90;99.90;;;;;;5110058;28;20233;-52
2022/08/30 08:27:17;;;;;;;7.65;4.60;;;22.00;99.90;;;;;;5110249;28;20207;-51
2022/08/30 08:29:46;;;;;;;7.57;4.20;;;22.10;99.90;;;;;;5107336;28;20307;-52
2022/08/30 08:32:14;;;;;;;5.10;4.05;;;22.30;99.90;;;;;;5104966;28;20249;-52
2022/08/30 08:34:42;;;;;;;7.63;3.65;;;22.30;99.90;;;;;;5104887;28;20231;-51
2022/08/30 08:37:10;;;;;;;5.82;3.70;;;22.40;99.90;;;;;;5110376;28;20268;-52
2022/08/30 08:39:38;;;;;;;6.18;3.80;;;22.20;99.90;;;;;;5109514;28;20211;-52
2022/08/30 08:42:15;;;;;;;5.85;3.42;;;22.30;99.90;;;;;;5110101;28;20203;-52
2022/08/30 08:44:54;;;;;;;5.05;3.45;;;22.50;99.90;;;;;;5109811;28;20223;-53
2022/08/30 08:47:28;;;;;;;5.70;3.53;;;22.60;99.90;;;;;;5110292;28;20283;-52
2022/08/30 08:50:01;;;;;;;6.18;3.35;;;22.60;99.90;;;;;;5109492;28;20213;-52
2022/08/30 08:55:24;;;;;;;6.00;3.75;;;22.50;99.90;;;;;;5109173;28;20231;-52
2022/08/30 08:57:53;;;;;;;8.00;3.92;;;22.40;99.90;;;;;;5105937;28;20227;-52
2022/08/30 09:00:21;;;;;;;5.10;3.45;;;22.30;99.90;;;;;;5101200;28;20195;-52
2022/08/30 09:02:56;;;;;;;9.80;3.92;;;22.30;99.90;;;;;;5109620;28;20578;-52
2022/08/30 09:05:27;;;;;;;6.05;3.58;;;22.40;99.90;;;;;;5109690;28;20276;-53
2022/08/30 09:08:02;;;;;;;6.50;3.47;;;22.40;99.90;;;;;;5109645;28;20241;-52
2022/08/30 09:10:37;;;;;;;7.15;3.63;;;22.50;99.90;;;;;;5112117;28;20205;-51
2022/08/30 09:13:19;;;;;;;5.38;3.33;;;22.80;99.90;;;;;;5114182;28;20272;-53
2022/08/30 09:15:50;;;;;;;7.43;3.60;;;22.80;99.90;;;;;;5114231;28;20601;-52
2022/08/30 09:18:41;;;;;;;9.48;3.42;;;23.00;99.90;;;;;;5086103;28;20227;-52
2022/08/30 09:21:14;;;;;;;3.63;3.30;;;23.10;99.90;;;;;;5113798;28;20204;-52
2022/08/30 09:23:49;;;;;;;5.78;3.53;;;23.20;99.90;;;;;;5114087;28;20297;-52
2022/08/30 09:26:29;;;;;;;6.25;3.60;;;23.30;99.90;;;;;;5113441;28;20671;-53
2022/08/30 09:28:59;;;;;;;5.35;3.17;;;23.30;99.90;;;;;;5111071;28;20609;-52
2022/08/30 09:31:30;;;;;;;5.28;3.33;;;23.30;99.90;;;;;;5112996;28;20685;-52
2022/08/30 09:34:02;;;;;;;3.47;2.47;;;23.30;99.90;;;;;;5101987;28;20226;-52
2022/08/30 09:36:34;;;;;;;4.97;2.90;;;23.40;99.90;;;;;;5113219;28;20231;-53
2022/08/30 09:39:04;;;;;;;6.15;3.13;;;23.50;99.90;;;;;;5113836;28;20257;-53
2022/08/30 09:41:41;;;;;;;6.53;3.15;;;23.60;99.90;;;;;;5112826;28;20207;-52
2022/08/30 09:44:15;;;;;;;3.25;2.85;;;23.70;99.90;;;;;;5113690;28;20227;-53
2022/08/30 09:46:47;;;;;;;5.75;3.10;;;23.80;99.90;;;;;;5113160;28;20244;-52
2022/08/30 09:49:29;;;;;;;5.13;3.15;;;23.70;99.90;;;;;;5112523;28;20196;-53
2022/08/30 09:52:16;;;;;;;3.70;2.38;;;23.80;99.90;;;;;;5112850;28;20208;-52
2022/08/30 09:54:56;;;;;;;3.70;2.35;;;23.80;99.90;;;;;;5113043;28;20250;-52
2022/08/30 09:57:31;;;;;;;4.68;2.78;;;23.80;99.90;;;;;;5109657;28;20209;-52
2022/08/30 10:00:07;;;;;;;9.02;2.90;;;23.90;99.90;;;;;;5103889;28;20203;-53
2022/08/30 10:02:58;;;;;;;4.20;2.95;;;23.80;99.90;;;;;;5097878;28;20954;-53
2022/08/30 10:05:31;;;;;;;3.70;2.42;;;23.90;99.90;;;;;;5113243;28;20223;-53
2022/08/30 10:08:10;;;;;;;4.10;2.30;;;23.90;99.90;;;;;;5112868;28;20214;-52
2022/08/30 10:10:49;;;;;;;5.20;2.83;;;23.90;99.90;;;;;;5112847;28;20208;-53
2022/08/30 10:13:50;;;;;;;6.90;3.05;;;23.90;99.90;;;;;;5086120;28;20199;-52
2022/08/30 10:16:35;;;;;;;5.32;3.03;;;23.90;99.90;;;;;;5112494;28;20682;-52
2022/08/30 10:19:15;;;;;;;9.95;3.10;;;24.00;99.90;;;;;;5112624;28;20217;-52
2022/08/30 10:21:48;;;;;;;5.10;2.80;;;23.90;99.90;;;;;;5084377;28;20215;-52
2022/08/30 10:24:22;;;;;;;4.72;3.00;;;23.80;99.90;;;;;;5112887;28;20280;-53
2022/08/30 10:26:54;;;;;;;5.05;2.92;;;23.90;99.90;;;;;;5086457;28;20204;-53
2022/08/30 10:29:28;;;;;;;4.93;2.60;;;24.00;99.90;;;;;;5109593;28;20203;-53
2022/08/30 10:32:03;;;;;;;4.53;2.85;;;24.10;99.90;;;;;;5080836;28;20207;-52
2022/08/30 10:34:36;;;;;;;4.28;2.70;;;24.00;99.90;;;;;;5102938;28;20231;-53
2022/08/30 10:37:08;;;;;;;5.40;2.65;;;23.90;99.50;;;;;;5098484;28;20264;-52
2022/08/30 10:39:41;;;;;;;5.53;2.90;;;24.00;99.90;;;;;;5112090;28;20257;-52
2022/08/30 10:42:17;;;;;;;5.90;3.03;;;24.00;99.90;;;;;;5111790;28;20208;-53
2022/08/30 10:44:49;;;;;;;4.18;2.80;;;24.10;99.90;;;;;;5098579;28;20227;-53
2022/08/30 10:47:25;;;;;;;4.07;3.00;;;24.10;99.80;;;;;;5084315;28;20199;-53
2022/08/30 10:50:02;;;;;;;4.63;2.85;;;24.20;99.90;;;;;;5112039;28;20207;-53
2022/08/30 10:52:38;;;;;;;6.72;3.20;;;24.20;99.90;;;;;;5111336;28;20207;-53
2022/08/30 10:55:12;;;;;;;3.65;2.88;;;24.30;99.90;;;;;;5110977;28;20227;-53
2022/08/30 10:57:40;;;;;;;5.15;2.88;;;24.20;99.80;;;;;;5111999;28;20622;-52
2022/08/30 11:00:13;;;;;;;5.53;3.00;;;24.30;99.30;;;;;;5102953;28;20583;-52
2022/08/30 11:03:11;;;;;;;5.18;2.70;;;24.30;98.90;;;;;;5111177;28;20199;-52
2022/08/30 11:05:55;;;;;;;4.78;2.72;;;24.20;99.60;;;;;;5094247;28;20241;-53
2022/08/30 11:08:39;;;;;;;5.82;3.00;;;24.30;99.90;;;;;;5091071;28;20199;-53
2022/08/30 11:11:15;;;;;;;7.03;3.35;;;24.40;99.90;;;;;;5106040;28;20211;-52
2022/08/30 11:13:46;;;;;;;6.30;3.10;;;24.50;99.30;;;;;;5111440;28;20268;-52
2022/08/30 11:16:17;;;;;;;3.35;2.78;;;24.50;99.50;;;;;;5110682;28;20635;-53
2022/08/30 11:18:51;;;;;;;6.78;2.72;;;24.60;99.40;;;;;;5110332;28;20227;-52
2022/08/30 11:21:24;;;;;;;5.35;3.20;;;24.70;98.90;;;;;;5110071;28;20204;-53
2022/08/30 11:24:06;;;;;;;3.72;2.67;;;24.60;98.40;;;;;;5111339;28;20208;-53
2022/08/30 11:27:00;;;;;;;4.75;3.40;;;24.60;98.50;;;;;;5108882;28;20207;-52
2022/08/30 11:29:38;;;;;;;5.75;3.00;;;24.70;98.30;;;;;;5106680;28;20210;-52
2022/08/30 11:32:23;;;;;;;5.78;3.00;;;24.80;98.90;;;;;;5081236;28;20225;-53
2022/08/30 11:34:59;;;;;;;3.95;2.88;;;24.80;97.90;;;;;;5104892;28;20220;-53
2022/08/30 11:37:38;;;;;;;4.40;3.20;;;24.90;97.70;;;;;;5110922;28;20226;-53
2022/08/30 11:40:09;;;;;;;6.82;2.97;;;24.80;97.70;;;;;;5110910;28;20231;-53
2022/08/30 11:42:44;;;;;;;4.22;3.00;;;24.80;97.90;;;;;;5110728;28;20749;-52
2022/08/30 11:45:44;;;;;;;4.55;3.08;;;24.80;98.20;;;;;;5111371;28;20306;-53
2022/08/30 11:48:41;;;;;;;5.47;3.33;;;24.80;98.40;;;;;;5110715;28;20204;-52
2022/08/30 11:51:39;;;;;;;4.30;2.53;;;24.80;97.30;;;;;;5111045;28;20207;-53
2022/08/30 11:54:21;;;;;;;5.53;3.17;;;24.90;97.50;;;;;;5084721;28;20258;-53
2022/08/30 11:57:01;;;;;;;5.75;3.13;;;24.90;97.60;;;;;;5110745;28;20208;-53
2022/08/30 11:59:37;;;;;;;3.88;3.08;;;25.00;98.70;;;;;;5101618;28;20279;-53
2022/08/30 12:02:07;;;;;;;6.63;3.10;;;25.10;98.00;;;;;;5111109;28;20603;-53
2022/08/30 12:04:43;;;;;;;5.63;3.42;;;25.20;98.70;;;;;;5109803;28;20576;-53
2022/08/30 12:07:33;;;;;;;6.38;2.90;;;25.30;98.30;;;;;;5110901;28;20671;-53
2022/08/30 12:10:06;;;;;;;4.72;3.15;;;25.50;98.50;;;;;;5109858;28;20204;-53
2022/08/30 12:12:51;;;;;;;10.98;3.33;;;25.60;98.50;;;;;;5110500;28;20204;-53
2022/08/30 12:15:55;;;;;;;4.47;3.22;;;25.80;98.30;;;;;;5110261;28;20815;-53
2022/08/30 12:18:41;;;;;;;5.03;3.33;;;25.80;97.80;;;;;;5061717;28;20226;-51
2022/08/30 12:21:30;;;;;;;5.70;3.00;;;25.80;97.50;;;;;;5105460;28;20211;-52
2022/08/30 12:24:18;;;;;;;4.07;3.40;;;25.60;97.80;;;;;;5110069;28;20272;-53
2022/08/30 12:26:51;;;;;;;5.57;3.75;;;25.60;97.50;;;;;;5109599;28;20315;-53
2022/08/30 12:29:21;;;;;;;6.30;3.20;;;25.50;97.50;;;;;;5107497;28;20203;-52
2022/08/30 12:31:54;;;;;;;7.47;3.28;;;25.20;97.50;;;;;;5108062;28;20276;-52
2022/08/30 12:34:27;;;;;;;4.13;3.10;;;25.20;98.20;;;;;;5100537;28;20227;-52
2022/08/30 12:37:02;;;;;;;4.43;3.10;;;25.10;97.70;;;;;;5109442;28;20196;-52
2022/08/30 12:39:34;;;;;;;5.00;3.30;;;25.10;97.90;;;;;;5109141;28;20770;-53
2022/08/30 12:42:18;;;;;;;4.05;3.45;;;25.30;98.40;;;;;;5109778;28;20665;-52
2022/08/30 12:44:47;;;;;;;7.05;3.53;;;25.40;97.30;;;;;;5109278;28;20231;-52
2022/08/30 12:47:21;;;;;;;7.30;3.28;;;25.50;97.40;;;;;;5110157;28;20244;-51
2022/08/30 12:49:52;;;;;;;5.32;2.95;;;25.60;97.50;;;;;;5109229;28;20299;-52
2022/08/30 12:52:22;;;;;;;7.53;3.58;;;25.80;96.30;;;;;;5108473;28;20204;-53
2022/08/30 12:54:52;;;;;;;6.38;3.30;;;25.70;96.50;;;;;;5101159;28;20243;-52
2022/08/30 12:57:37;;;;;;;6.38;3.67;;;25.70;97.60;;;;;;5091884;28;20212;-53
2022/08/30 13:00:08;;;;;;;6.03;3.60;;;25.60;96.80;;;;;;5080673;28;20246;-53
2022/08/30 13:02:45;;;;;;;4.68;3.30;;;25.60;96.30;;;;;;5106734;28;20195;-53
2022/08/30 13:05:42;;;;;;;5.45;3.38;;;25.70;96.80;;;;;;5109762;28;20223;-53
2022/08/30 13:08:19;;;;;;;6.32;3.55;;;25.70;96.10;;;;;;5095997;28;20195;-52
2022/08/30 13:10:51;;;;;;;7.57;3.13;;;26.00;96.70;;;;;;5107023;28;20207;-53
2022/08/30 13:13:39;;;;;;;4.78;3.30;;;26.30;96.10;;;;;;5097480;28;20241;-53
2022/08/30 13:16:10;;;;;;;5.70;3.40;;;26.30;95.50;;;;;;5109961;28;20207;-52
2022/08/30 13:18:39;;;;;;;5.50;3.20;;;26.40;95.20;;;;;;5100896;28;20299;-52